createdAt,value
2023-01-15T00:02:51.916Z,8.19
2023-01-15T00:06:55.527Z,8.23
2023-01-15T00:11:03.974Z,8.28
2023-01-15T00:15:08.217Z,8.32
2023-01-15T00:19:13.125Z,8.36
2023-01-15T00:23:36.226Z,8.40
2023-01-15T00:27:39.890Z,8.44
2023-01-15T00:31:43.684Z,8.42
2023-01-15T00:35:46.718Z,8.39
2023-01-15T00:39:50.146Z,8.32
2023-01-15T00:43:54.792Z,8.25
2023-01-15T00:47:57.854Z,8.15
2023-01-15T00:52:01.252Z,8.04
2023-01-15T00:56:04.211Z,7.92
2023-01-15T01:00:12.542Z,7.82
2023-01-15T01:04:15.916Z,7.70
2023-01-15T01:08:19.467Z,7.63
2023-01-15T01:12:23.798Z,7.56
2023-01-15T01:16:33.784Z,7.51
2023-01-15T01:20:39.405Z,7.45
2023-01-15T01:24:42.662Z,7.42
2023-01-15T01:28:50.643Z,7.38
2023-01-15T01:32:55.317Z,7.35
2023-01-15T01:36:59.785Z,7.32
2023-01-15T01:41:02.817Z,7.32
2023-01-15T01:45:13.235Z,7.30
2023-01-15T01:49:18.132Z,7.28
2023-01-15T01:53:24.586Z,7.26
2023-01-15T01:57:27.773Z,7.22
2023-01-15T02:01:31.286Z,7.20
2023-01-15T02:05:39.336Z,7.18
2023-01-15T02:09:42.751Z,7.16
2023-01-15T02:13:53.585Z,7.17
2023-01-15T02:18:02.428Z,7.18
2023-01-15T02:22:15.864Z,7.17
2023-01-15T02:26:41.757Z,7.16
2023-01-15T02:30:49.154Z,7.13
2023-01-15T02:34:58.111Z,7.08
2023-01-15T02:39:06.046Z,7.06
2023-01-15T02:43:12.931Z,7.02
2023-01-15T02:47:18.776Z,6.99
2023-01-15T02:51:26.114Z,6.97
2023-01-15T02:55:33.548Z,6.96
2023-01-15T02:59:41.256Z,6.98
2023-01-15T03:03:50.394Z,7.01
2023-01-15T03:07:56.231Z,7.03
2023-01-15T03:12:10.360Z,7.08
2023-01-15T03:16:39.362Z,7.12
2023-01-15T03:20:51.046Z,7.15
2023-01-15T03:24:58.119Z,7.17
2023-01-15T03:29:03.958Z,7.24
2023-01-15T03:33:11.629Z,7.30
2023-01-15T03:37:15.648Z,7.36
2023-01-15T03:41:26.077Z,7.45
2023-01-15T03:45:38.103Z,7.53
2023-01-15T03:50:01.012Z,7.58
2023-01-15T03:54:07.561Z,7.66
2023-01-15T03:58:15.548Z,7.68
2023-01-15T04:02:21.767Z,7.69
2023-01-15T04:06:28.201Z,7.70
2023-01-15T04:10:31.618Z,7.71
2023-01-15T04:14:35.952Z,7.71
2023-01-15T04:18:39.141Z,7.72
2023-01-15T04:22:43.479Z,7.73
2023-01-15T04:26:46.724Z,7.73
2023-01-15T04:30:52.760Z,7.74
2023-01-15T04:34:55.666Z,7.76
2023-01-15T04:39:00.394Z,7.77
2023-01-15T04:43:21.181Z,7.80
2023-01-15T04:47:24.255Z,7.86
2023-01-15T04:51:27.623Z,7.90
2023-01-15T04:55:33.291Z,7.89
2023-01-15T04:59:36.495Z,7.82
2023-01-15T05:03:39.904Z,7.87
2023-01-15T05:07:43.150Z,7.89
2023-01-15T05:11:47.917Z,7.91
2023-01-15T05:15:51.211Z,7.93
2023-01-15T05:19:54.160Z,7.93
2023-01-15T05:23:59.013Z,7.86
2023-01-15T05:28:07.109Z,7.84
2023-01-15T05:32:10.397Z,7.87
2023-01-15T05:36:15.149Z,7.84
2023-01-15T05:40:18.568Z,7.84
2023-01-15T05:44:25.747Z,7.83
2023-01-15T05:48:29.390Z,7.82
2023-01-15T05:52:32.689Z,7.84
2023-01-15T05:56:36.818Z,7.87
2023-01-15T06:00:41.284Z,7.88
2023-01-15T06:04:44.551Z,7.91
2023-01-15T06:08:47.623Z,7.92
2023-01-15T06:12:50.968Z,7.94
2023-01-15T06:16:55.450Z,7.95
2023-01-15T06:20:58.316Z,7.90
2023-01-15T06:25:01.484Z,7.88
2023-01-15T06:33:14.789Z,7.79
2023-01-15T06:37:17.905Z,7.71
2023-01-15T06:41:40.464Z,7.67
2023-01-15T06:46:01.085Z,7.64
2023-01-15T06:50:06.159Z,7.65
2023-01-15T06:54:09.319Z,7.66
2023-01-15T06:58:12.314Z,7.66
2023-01-15T07:02:15.514Z,7.65
2023-01-15T07:06:19.871Z,7.72
2023-01-15T07:10:23.108Z,7.74
2023-01-15T07:14:28.238Z,7.77
2023-01-15T07:18:33.930Z,7.80
2023-01-15T07:22:38.408Z,7.84
2023-01-15T07:26:42.331Z,7.86
2023-01-15T07:30:45.254Z,7.88
2023-01-15T07:34:48.548Z,7.90
2023-01-15T07:38:53.286Z,7.92
2023-01-15T07:43:14.285Z,7.94
2023-01-15T07:47:38.577Z,7.97
2023-01-15T07:51:41.445Z,7.97
2023-01-15T07:55:46.387Z,8.00
2023-01-15T07:59:49.412Z,8.02
2023-01-15T08:03:52.469Z,8.05
2023-01-15T08:07:55.886Z,8.11
2023-01-15T08:12:20.090Z,8.16
2023-01-15T08:16:23.225Z,8.23
2023-01-15T08:20:28.384Z,8.27
2023-01-15T08:24:31.334Z,8.35
2023-01-15T08:28:35.812Z,8.49
2023-01-15T08:32:39.182Z,8.62
2023-01-15T08:36:42.274Z,8.76
2023-01-15T08:45:15.276Z,9.02
2023-01-15T08:49:18.462Z,9.10
2023-01-15T08:53:22.108Z,9.14
2023-01-15T08:57:25.307Z,9.18
2023-01-15T09:01:29.925Z,9.21
2023-01-15T09:05:33.085Z,9.24
2023-01-15T09:09:36.021Z,9.23
2023-01-15T09:13:39.638Z,9.26
2023-01-15T09:17:44.587Z,9.22
2023-01-15T09:21:47.953Z,9.27
2023-01-15T09:25:55.184Z,9.28
2023-01-15T09:29:58.389Z,9.31
2023-01-15T09:34:03.077Z,9.34
2023-01-15T09:38:06.373Z,9.32
2023-01-15T09:42:25.412Z,9.25
2023-01-15T09:46:37.928Z,9.36
2023-01-15T09:50:57.051Z,9.41
2023-01-15T09:55:06.724Z,9.45
2023-01-15T09:59:22.092Z,9.53
2023-01-15T10:03:36.113Z,9.66
2023-01-15T10:07:51.029Z,9.79
2023-01-15T10:12:17.272Z,9.91
2023-01-15T10:16:24.046Z,10.05
2023-01-15T10:20:51.183Z,10.20
2023-01-15T10:24:59.081Z,10.34
2023-01-15T10:29:04.842Z,10.42
2023-01-15T10:33:23.124Z,10.48
2023-01-15T10:37:31.173Z,10.53
2023-01-15T10:41:51.033Z,10.57
2023-01-15T10:45:58.382Z,10.61
2023-01-15T10:50:02.790Z,10.65
2023-01-15T10:54:13.270Z,10.65
2023-01-15T10:58:35.081Z,10.74
2023-01-15T11:02:41.595Z,10.81
2023-01-15T11:06:44.872Z,10.90
2023-01-15T11:10:47.930Z,11.00
2023-01-15T11:15:10.217Z,11.08
2023-01-15T11:19:39.927Z,11.09
2023-01-15T11:23:43.505Z,11.17
2023-01-15T11:27:51.242Z,11.18
2023-01-15T11:31:55.843Z,11.17
2023-01-15T11:36:00.749Z,11.16
2023-01-15T11:40:06.165Z,11.11
2023-01-15T11:44:30.152Z,11.09
2023-01-15T11:49:02.301Z,11.11
2023-01-15T11:53:05.916Z,11.04
2023-01-15T11:57:09.659Z,10.97
2023-01-15T12:01:15.935Z,10.90
2023-01-15T12:05:22.539Z,10.82
2023-01-15T12:09:36.293Z,10.72
2023-01-15T12:13:48.913Z,10.59
2023-01-15T12:18:27.044Z,10.49
2023-01-15T12:22:56.049Z,10.37
2023-01-15T12:27:13.426Z,10.25
2023-01-15T12:31:21.187Z,10.23
2023-01-15T12:35:30.127Z,10.19
2023-01-15T12:39:42.636Z,10.18
2023-01-15T12:44:08.715Z,10.17
2023-01-15T12:48:21.220Z,10.17
2023-01-15T12:52:28.170Z,10.16
2023-01-15T12:56:44.735Z,10.14
2023-01-15T13:00:50.702Z,10.10
2023-01-15T13:04:59.667Z,10.05
2023-01-15T13:09:07.552Z,9.99
2023-01-15T13:13:18.460Z,9.92
2023-01-15T13:17:32.040Z,9.85
2023-01-15T13:21:38.513Z,9.78
2023-01-15T13:25:56.840Z,9.70
2023-01-15T13:30:16.744Z,9.63
2023-01-15T13:34:28.128Z,9.55
2023-01-15T13:38:34.009Z,9.48
2023-01-15T13:42:40.797Z,9.41
2023-01-15T13:46:46.899Z,9.39
2023-01-15T13:50:55.159Z,9.40
2023-01-15T13:55:01.412Z,9.42
2023-01-15T13:59:28.829Z,9.46
2023-01-15T14:03:40.340Z,9.52
2023-01-15T14:07:43.635Z,9.54
2023-01-15T14:12:04.604Z,9.59
2023-01-15T14:16:16.637Z,9.63
2023-01-15T14:20:38.327Z,9.68
2023-01-15T14:25:17.363Z,9.70
2023-01-15T14:29:43.853Z,9.71
2023-01-15T14:34:00.201Z,9.71
2023-01-15T14:38:09.270Z,9.68
2023-01-15T14:42:35.857Z,9.61
2023-01-15T14:46:42.231Z,9.56
2023-01-15T14:50:45.440Z,9.54
2023-01-15T14:54:50.592Z,9.53
2023-01-15T14:58:59.915Z,9.49
2023-01-15T15:03:04.895Z,9.43
2023-01-15T15:07:13.479Z,9.36
2023-01-15T15:11:43.553Z,9.30
2023-01-15T15:15:53.288Z,9.26
2023-01-15T15:20:08.897Z,9.22
2023-01-15T15:24:18.644Z,9.16
2023-01-15T15:28:23.267Z,9.15
2023-01-15T15:32:27.091Z,9.13
2023-01-15T15:36:33.984Z,9.11
2023-01-15T15:40:38.605Z,9.08
2023-01-15T15:45:08.752Z,9.06
2023-01-15T15:49:13.110Z,9.00
2023-01-15T15:53:18.747Z,8.99
2023-01-15T15:57:22.099Z,8.98
2023-01-15T16:01:26.982Z,8.95
2023-01-15T16:05:32.208Z,8.89
2023-01-15T16:09:35.463Z,8.90
2023-01-15T16:13:44.342Z,8.87
2023-01-15T16:17:50.309Z,8.85
2023-01-15T16:21:54.637Z,8.83
2023-01-15T16:26:02.815Z,8.84
2023-01-15T16:30:06.945Z,8.84
2023-01-15T16:34:19.471Z,8.83
2023-01-15T16:38:23.041Z,8.75
2023-01-15T16:42:29.102Z,8.65
2023-01-15T16:46:34.362Z,8.55
2023-01-15T16:50:40.007Z,8.48
2023-01-15T16:54:47.816Z,8.41
2023-01-15T16:58:50.841Z,8.32
2023-01-15T17:02:55.155Z,8.30
2023-01-15T17:07:08.331Z,8.26
2023-01-15T17:11:22.457Z,8.23
2023-01-15T17:15:37.488Z,8.22
2023-01-15T17:19:40.580Z,8.21
2023-01-15T17:23:46.775Z,8.21
2023-01-15T17:27:49.710Z,8.20
2023-01-15T17:31:53.211Z,8.17
2023-01-15T17:35:58.491Z,8.16
2023-01-15T17:40:03.533Z,8.14
2023-01-15T17:44:07.521Z,8.13
2023-01-15T17:48:11.073Z,8.09
2023-01-15T17:52:20.842Z,8.08
2023-01-15T17:56:42.514Z,8.08
2023-01-15T18:01:03.789Z,8.04
2023-01-15T18:05:30.996Z,8.03
2023-01-15T18:09:36.331Z,8.01
2023-01-15T18:13:42.227Z,8.01
2023-01-15T18:17:45.772Z,8.01
2023-01-15T18:21:51.884Z,7.95
2023-01-15T18:25:55.406Z,7.95
2023-01-15T18:34:05.346Z,7.90
2023-01-15T18:38:08.545Z,7.91
2023-01-15T18:42:29.616Z,7.90
2023-01-15T18:46:44.787Z,7.89
2023-01-15T18:50:50.877Z,7.83
2023-01-15T18:54:54.763Z,7.85
2023-01-15T18:58:58.460Z,7.85
2023-01-15T19:03:03.569Z,7.85
2023-01-15T19:07:10.530Z,7.88
2023-01-15T19:11:14.687Z,7.91
2023-01-15T19:15:37.926Z,7.91
2023-01-15T19:19:43.392Z,7.93
2023-01-15T19:23:48.070Z,7.94
2023-01-15T19:27:51.489Z,7.94
2023-01-15T19:31:54.452Z,7.94
2023-01-15T19:36:00.172Z,7.94
2023-01-15T19:40:04.938Z,7.89
2023-01-15T19:44:40.135Z,7.85
2023-01-15T19:49:00.824Z,7.81
2023-01-15T19:53:06.234Z,7.76
2023-01-15T19:57:10.890Z,7.72
2023-01-15T20:01:17.718Z,7.68
2023-01-15T20:05:21.934Z,7.65
2023-01-15T20:09:26.372Z,7.64
2023-01-15T20:13:48.172Z,7.59
2023-01-15T20:17:53.449Z,7.59
2023-01-15T20:21:56.723Z,7.58
2023-01-15T20:26:05.358Z,7.57
2023-01-15T20:30:13.464Z,7.55
2023-01-15T20:34:17.807Z,7.52
2023-01-15T20:38:22.325Z,7.48
2023-01-15T20:42:42.668Z,7.48
2023-01-15T20:46:47.691Z,7.46
2023-01-15T20:51:01.950Z,7.42
2023-01-15T20:55:05.194Z,7.41
2023-01-15T20:59:08.656Z,7.40
2023-01-15T21:03:13.575Z,7.42
2023-01-15T21:07:17.090Z,7.38
2023-01-15T21:11:22.242Z,7.35
2023-01-15T21:15:26.562Z,7.29
2023-01-15T21:19:31.783Z,7.28
2023-01-15T21:23:37.694Z,7.29
2023-01-15T21:27:41.204Z,7.26
2023-01-15T21:31:45.491Z,7.22
2023-01-15T21:35:50.047Z,7.21
2023-01-15T21:39:53.705Z,7.18
2023-01-15T21:44:14.168Z,7.15
2023-01-15T21:48:18.450Z,7.13
2023-01-15T21:52:24.011Z,7.16
2023-01-15T21:56:27.170Z,7.15
2023-01-15T22:00:30.379Z,7.16
2023-01-15T22:04:36.884Z,7.15
2023-01-15T22:08:41.436Z,7.16
2023-01-15T22:12:44.308Z,7.16
2023-01-15T22:16:48.304Z,7.15
2023-01-15T22:20:57.954Z,7.14
2023-01-15T22:25:02.932Z,7.12
2023-01-15T22:29:05.840Z,7.07
2023-01-15T22:33:09.042Z,6.98
2023-01-15T22:37:14.415Z,6.91
2023-01-15T22:41:39.864Z,6.83
2023-01-15T22:45:42.873Z,6.73
2023-01-15T22:49:46.398Z,6.63
2023-01-15T22:53:49.964Z,6.57
2023-01-15T22:57:54.554Z,6.48
2023-01-15T23:01:57.507Z,6.41
2023-01-15T23:06:06.234Z,6.39
2023-01-15T23:10:11.732Z,6.37
2023-01-15T23:14:17.145Z,6.36
2023-01-15T23:18:20.133Z,6.35
2023-01-15T23:22:23.279Z,6.32
2023-01-15T23:26:28.643Z,6.40
2023-01-15T23:30:33.180Z,6.40
2023-01-15T23:34:36.571Z,6.46
2023-01-15T23:38:40.097Z,6.49
2023-01-15T23:43:00.652Z,6.50
2023-01-15T23:47:05.110Z,6.51
2023-01-15T23:51:08.496Z,6.50
2023-01-15T23:55:11.750Z,6.49
2023-01-15T23:59:15.027Z,6.46
